Time;durP1;ratioP1;P1;durP2;ratioP2;P2;SDS_P1;SDS_P2;PMS_P1;PMS_P2;Temp;Humidity;BMP_temperature;BMP_pressure;BME280_temperature;BME280_humidity;BME280_pressure;Samples;Min_cycle;Max_cycle;Signal;HPM_P1;HPM_P2
2022/05/21 00:00:28;;;;;;;11.98;6.22;;;22.50;56.80;;;19.13;75.09;96000.59;5052398;28;20025;-53
2022/05/21 00:02:55;;;;;;;15.57;6.30;;;22.40;57.60;;;19.10;75.26;96001.22;5064210;28;20025;-55
2022/05/21 00:05:24;;;;;;;10.68;6.00;;;22.30;57.80;;;19.00;75.80;96007.69;5055105;28;20024;-54
2022/05/21 00:08:00;;;;;;;13.80;6.55;;;22.20;58.30;;;18.87;76.08;96027.44;5055935;28;20024;-53
2022/05/21 00:10:33;;;;;;;9.63;5.47;;;22.10;59.10;;;18.78;76.75;96018.47;5073136;28;20433;-51
2022/05/21 00:13:08;;;;;;;;;;;22.00;59.50;;;18.65;77.29;96009.31;5072751;28;20426;-53
2022/05/21 00:15:46;;;;;;;10.32;5.53;;;21.90;59.00;;;18.64;77.35;96003.09;5038987;28;19915;-54
2022/05/21 00:18:15;;;;;;;11.52;5.50;;;21.90;59.30;;;18.45;78.42;96010.56;5072813;28;20119;-53
2022/05/21 00:20:47;;;;;;;8.38;5.35;;;21.80;60.00;;;18.35;78.73;96043.94;5072089;28;20033;-53
2022/05/21 00:23:24;;;;;;;9.98;5.28;;;21.60;60.50;;;18.13;79.92;96031.19;5067280;28;20025;-53
2022/05/21 00:26:27;;;;;;;8.82;5.18;;;21.50;61.30;;;17.97;80.56;96033.41;5065816;28;20037;-50
2022/05/21 00:28:53;;;;;;;9.52;5.30;;;21.40;62.30;;;17.94;80.75;96039.38;5069516;28;20395;-51
2022/05/21 00:31:19;;;;;;;7.53;5.40;;;21.20;62.40;;;17.87;80.88;96014.75;5072955;28;20043;-53
2022/05/21 00:33:48;;;;;;;7.28;5.50;;;21.10;62.60;;;17.85;81.24;96040.38;5055148;28;20033;-54
2022/05/21 00:36:17;;;;;;;9.05;5.28;;;21.00;63.20;;;17.76;81.70;96049.13;5073083;28;20563;-51
2022/05/21 00:38:44;;;;;;;9.25;5.72;;;21.00;63.80;;;17.68;82.05;96052.53;5037641;28;20091;-53
2022/05/21 00:41:17;;;;;;;10.20;5.75;;;20.90;64.40;;;17.70;81.89;96041.44;5071700;28;20080;-52
2022/05/21 00:44:15;;;;;;;8.07;5.60;;;20.80;64.70;;;17.68;82.15;96039.06;5072826;28;20099;-54
2022/05/21 00:46:44;;;;;;;7.68;5.35;;;20.70;64.60;;;17.64;82.16;96027.28;5021728;28;20041;-53
2022/05/21 00:49:25;;;;;;;8.70;5.55;;;20.70;64.40;;;17.58;82.66;96028.50;5034441;28;20032;-54
2022/05/21 00:52:00;;;;;;;10.10;5.65;;;20.70;65.00;;;17.51;82.75;96030.75;5028837;28;20078;-51
2022/05/21 00:54:40;;;;;;;8.05;5.47;;;20.60;64.70;;;17.46;83.03;96036.25;5072618;28;20090;-50
2022/05/21 00:57:17;;;;;;;12.23;6.07;;;20.60;65.20;;;17.41;83.52;96047.91;5071301;28;20407;-52
2022/05/21 00:59:53;;;;;;;8.85;5.35;;;20.50;65.40;;;17.40;83.57;96032.06;5046471;28;20033;-54
2022/05/21 01:02:57;;;;;;;9.38;6.13;;;20.50;65.30;;;17.39;83.71;96036.63;5051291;28;20405;-52
2022/05/21 01:05:26;;;;;;;12.60;5.90;;;20.50;65.50;;;17.36;84.31;96058.78;5025335;28;20037;-53
2022/05/21 01:07:58;;;;;;;9.65;5.82;;;20.50;65.50;;;17.36;84.64;96058.78;5059122;28;20060;-54
2022/05/21 01:10:39;;;;;;;11.95;6.40;;;20.50;66.20;;;17.37;84.98;96059.56;5071058;28;20039;-50
2022/05/21 01:13:12;;;;;;;7.78;5.68;;;20.50;66.60;;;17.38;85.04;96059.25;5070974;28;20032;-51
2022/05/21 01:15:49;;;;;;;10.57;5.25;;;20.50;67.00;;;17.41;84.95;96057.88;5072100;28;20032;-51
2022/05/21 01:18:15;;;;;;;9.13;5.93;;;20.50;67.30;;;17.45;85.05;96066.94;5070337;28;20483;-50
2022/05/21 01:20:44;;;;;;;13.48;6.20;;;20.50;67.40;;;17.51;84.81;96065.75;5054219;28;20028;-50
2022/05/21 01:23:11;;;;;;;12.98;6.53;;;20.50;67.40;;;17.56;84.78;96071.06;5071280;28;20050;-50
2022/05/21 01:25:42;;;;;;;11.85;6.40;;;20.60;67.40;;;17.60;84.68;96074.75;5035080;28;20021;-50
2022/05/21 01:28:13;;;;;;;9.88;6.65;;;20.60;67.40;;;17.63;84.70;96062.59;5033526;28;20051;-55
2022/05/21 01:30:44;;;;;;;6.82;6.13;;;20.70;67.30;;;17.64;84.84;96056.09;5033931;28;20136;-53
2022/05/21 01:33:16;;;;;;;11.30;7.32;;;20.70;67.30;;;17.64;84.76;96048.03;5051818;28;20484;-55
2022/05/21 01:35:48;;;;;;;8.65;6.47;;;20.70;67.20;;;17.63;84.62;96054.53;5060727;28;20077;-55
2022/05/21 01:38:20;;;;;;;9.02;6.75;;;20.70;67.10;;;17.56;85.39;96066.47;5071033;28;20059;-51
2022/05/21 01:40:47;;;;;;;12.75;7.63;;;20.80;67.20;;;17.55;85.72;96066.78;5037341;28;20395;-55
2022/05/21 01:46:01;;;;;;;11.52;7.32;;;20.70;67.80;;;17.56;85.80;96077.25;5071737;28;20031;-54
2022/05/21 01:48:30;;;;;;;13.07;7.50;;;20.70;67.70;;;17.60;85.74;96076.66;5053474;28;20040;-53
2022/05/21 01:50:59;;;;;;;11.93;7.43;;;20.70;67.90;;;17.60;85.92;96085.53;5080481;28;20062;-52
2022/05/21 01:53:26;;;;;;;13.30;7.32;;;20.70;68.10;;;17.62;85.67;96079.88;5035103;28;20029;-50
2022/05/21 01:55:53;;;;;;;12.65;7.22;;;20.70;68.00;;;17.59;86.29;96073.16;5051414;28;20025;-55
2022/05/21 01:58:22;;;;;;;17.45;8.88;;;20.70;68.90;;;17.60;86.18;96077.47;5061672;28;20044;-53
2022/05/21 02:00:51;;;;;;;14.43;7.78;;;20.80;68.40;;;17.61;86.03;96076.34;5017330;28;20025;-52
2022/05/21 02:03:47;;;;;;;9.88;8.05;;;20.80;68.40;;;17.64;86.03;96081.16;5071388;28;20090;-53
2022/05/21 02:06:13;;;;;;;13.85;8.27;;;20.80;68.80;;;17.65;85.94;96081.97;5071242;28;20037;-54
2022/05/21 02:08:39;;;;;;;12.85;8.15;;;20.80;68.40;;;17.66;85.97;96084.34;5052832;28;20032;-51
2022/05/21 02:11:12;;;;;;;12.45;8.07;;;20.80;68.60;;;17.67;86.01;96085.16;5053541;28;20036;-53
2022/05/21 02:13:38;;;;;;;14.73;8.02;;;20.80;68.70;;;17.67;85.90;96083.25;5053732;28;20499;-54
2022/05/21 02:16:04;;;;;;;12.70;7.95;;;20.80;68.50;;;17.69;85.72;96080.28;5053435;28;20041;-53
2022/05/21 02:18:31;;;;;;;12.35;8.73;;;20.80;68.50;;;17.68;85.86;96079.47;5052805;28;20387;-54
2022/05/21 02:20:59;;;;;;;14.98;8.35;;;20.90;68.60;;;17.69;85.73;96069.50;5053367;28;20029;-52
2022/05/21 02:23:25;;;;;;;11.88;8.13;;;20.90;68.80;;;17.69;85.85;96075.69;5036694;28;20029;-52
2022/05/21 02:25:52;;;;;;;14.77;7.95;;;20.90;68.60;;;17.70;85.96;96079.97;5053341;28;20024;-51
2022/05/21 02:28:21;;;;;;;12.75;7.90;;;20.90;68.80;;;17.71;85.92;96086.97;5052873;28;20033;-49
2022/05/21 02:30:46;;;;;;;13.98;7.97;;;20.90;69.00;;;17.73;86.10;96092.84;5071188;28;20024;-52
2022/05/21 02:33:15;;;;;;;13.57;8.30;;;21.00;69.20;;;17.75;86.02;96096.03;5071663;28;20032;-53
2022/05/21 02:35:41;;;;;;;11.68;8.85;;;20.90;69.30;;;17.78;85.97;96090.09;5075508;28;20440;-52
2022/05/21 02:40:52;;;;;;;12.20;7.95;;;21.00;69.20;;;17.79;86.21;96082.78;5063106;28;20519;-58
2022/05/21 02:43:18;;;;;;;14.25;8.20;;;21.00;69.30;;;17.76;86.55;96088.75;5048407;28;20029;-57
2022/05/21 02:45:47;;;;;;;10.48;7.90;;;21.00;69.60;;;17.75;86.55;96081.78;5075542;28;20032;-56
2022/05/21 02:48:17;;;;;;;11.02;8.27;;;21.00;69.80;;;17.77;86.30;96082.31;5074086;28;20040;-55
2022/05/21 02:50:42;;;;;;;15.93;8.68;;;21.00;69.70;;;17.76;86.56;96081.47;5068565;28;20048;-58
2022/05/21 02:53:18;;;;;;;12.05;7.93;;;21.00;69.80;;;17.75;86.49;96093.34;5037756;28;20057;-58
2022/05/21 02:55:49;;;;;;;11.93;8.48;;;20.90;70.00;;;17.71;87.02;96095.03;5054375;28;20017;-58
2022/05/21 02:58:17;;;;;;;14.40;8.40;;;20.90;70.20;;;17.71;87.00;96095.03;5039944;28;20053;-57
2022/05/21 03:00:45;;;;;;;15.63;8.77;;;20.90;70.30;;;17.72;87.37;96093.16;5055565;28;20116;-57
2022/05/21 03:03:12;;;;;;;14.52;8.73;;;20.90;70.60;;;17.72;87.00;96082.38;5055802;28;20491;-57
2022/05/21 03:05:42;;;;;;;14.82;9.50;;;20.80;70.50;;;17.72;87.15;96079.69;5037682;28;20082;-55
2022/05/21 03:10:57;;;;;;;11.05;8.75;;;20.80;70.60;;;17.66;87.54;96086.25;5040469;28;20040;-56
2022/05/21 03:13:34;;;;;;;13.70;8.93;;;20.80;70.80;;;17.63;87.75;96095.72;5057845;28;20021;-57
2022/05/21 03:16:01;;;;;;;13.68;9.60;;;20.80;71.20;;;17.60;88.10;96090.94;5060455;28;20025;-53
2022/05/21 03:18:36;;;;;;;15.20;10.32;;;20.70;71.00;;;17.60;87.83;96085.53;5055233;28;20021;-57
2022/05/21 03:21:05;;;;;;;15.52;10.40;;;20.70;71.40;;;17.56;88.21;96085.34;5055013;28;20079;-57
2022/05/21 03:23:33;;;;;;;14.60;10.60;;;20.70;71.30;;;17.55;88.26;96089.13;5037260;28;20025;-57
2022/05/21 03:25:59;;;;;;;15.45;10.25;;;20.70;71.40;;;17.52;88.23;96105.88;5054900;28;20029;-57
2022/05/21 03:28:25;;;;;;;16.08;10.10;;;20.70;71.50;;;17.46;88.18;96104.38;5037115;28;20032;-57
2022/05/21 03:30:51;;;;;;;14.98;10.43;;;20.60;71.80;;;17.50;88.28;96091.91;5037502;28;20048;-58
2022/05/21 03:33:17;;;;;;;14.50;11.18;;;20.60;71.60;;;17.52;88.31;96095.13;5055313;28;20033;-58
2022/05/21 03:35:47;;;;;;;13.50;10.77;;;20.60;71.60;;;17.51;88.42;96093.50;5054659;28;20027;-57
2022/05/21 03:38:33;;;;;;;13.95;10.43;;;20.60;71.80;;;17.50;88.56;96094.59;5054435;28;20103;-56
2022/05/21 03:41:08;;;;;;;13.98;11.90;;;20.60;71.90;;;17.49;88.61;96086.81;5042826;28;20068;-58
2022/05/21 03:43:36;;;;;;;20.75;12.02;;;20.70;72.00;;;17.42;88.49;96092.56;5040496;28;20025;-57
2022/05/21 03:46:04;;;;;;;20.35;11.82;;;20.60;72.10;;;17.45;88.60;96099.25;5039149;28;20500;-58
2022/05/21 03:48:30;;;;;;;20.40;11.00;;;20.60;72.00;;;17.38;88.15;96090.78;5070191;28;20070;-58
2022/05/21 03:50:56;;;;;;;19.50;11.15;;;20.60;72.20;;;17.33;88.22;96086.28;5054665;28;20116;-54
2022/05/21 03:53:21;;;;;;;18.30;11.48;;;20.60;72.20;;;17.31;87.86;96091.97;5036680;28;20116;-57
2022/05/21 03:55:48;;;;;;;16.38;10.90;;;20.60;72.10;;;17.32;88.08;96093.53;5048948;28;20028;-56
2022/05/21 03:58:15;;;;;;;17.02;10.82;;;20.60;72.10;;;17.29;88.01;96099.53;5068156;28;20032;-57
2022/05/21 04:00:44;;;;;;;17.48;11.85;;;20.60;72.30;;;17.25;88.04;96095.03;5056380;28;20115;-57
2022/05/21 04:03:10;;;;;;;16.42;11.55;;;20.60;72.40;;;17.24;87.71;96105.00;5056603;28;20375;-52
2022/05/21 04:05:36;;;;;;;15.70;11.65;;;20.60;72.30;;;17.26;87.66;96104.69;5056655;28;20032;-53
2022/05/21 04:08:05;;;;;;;18.48;11.50;;;20.60;72.30;;;17.27;87.75;96103.63;5056182;28;20058;-54
2022/05/21 04:10:31;;;;;;;16.48;11.13;;;20.50;72.40;;;17.21;87.42;96097.50;5074345;28;20459;-56
2022/05/21 04:12:57;;;;;;;14.68;10.38;;;20.50;72.30;;;17.24;87.23;96101.53;5039890;28;20115;-53
2022/05/21 04:15:26;;;;;;;13.55;10.52;;;20.50;72.10;;;17.12;87.42;96096.59;5073858;28;20106;-57
2022/05/21 04:17:56;;;;;;;16.42;10.27;;;20.50;72.30;;;17.14;86.79;96099.75;5052376;28;20024;-52
2022/05/21 04:20:25;;;;;;;14.07;9.98;;;20.50;72.20;;;17.16;86.83;96111.03;5055584;28;20031;-56
2022/05/21 04:22:57;;;;;;;13.80;9.88;;;20.50;72.10;;;17.17;86.73;96115.31;5055862;28;20032;-55
2022/05/21 04:25:28;;;;;;;13.95;9.80;;;20.50;72.10;;;17.16;86.78;96118.31;5074125;28;20024;-56
2022/05/21 04:27:54;;;;;;;18.20;9.60;;;20.50;72.00;;;17.14;86.19;96123.19;5039088;28;20036;-57
2022/05/21 04:30:35;;;;;;;12.95;9.70;;;20.50;71.70;;;17.13;86.36;96124.28;5074855;28;20090;-56
2022/05/21 04:33:16;;;;;;;12.38;9.40;;;20.50;71.60;;;17.09;86.21;96127.56;5071479;28;20035;-57
2022/05/21 04:38:33;;;;;;;15.63;9.10;;;20.50;71.40;;;17.05;85.87;96126.56;5058845;28;20070;-56
2022/05/21 04:40:59;;;;;;;11.35;8.18;;;20.50;71.30;;;16.97;85.32;96127.22;5073850;28;20029;-57
2022/05/21 04:43:25;;;;;;;12.27;8.63;;;20.50;71.20;;;16.96;85.11;96128.31;5066916;28;20517;-57
2022/05/21 04:45:56;;;;;;;14.48;9.13;;;20.40;70.90;;;16.97;85.21;96137.19;5073517;28;20537;-54
2022/05/21 04:48:23;;;;;;;12.52;8.35;;;20.40;71.00;;;16.91;84.89;96136.44;5073526;28;20033;-55
2022/05/21 04:50:49;;;;;;;12.57;9.52;;;20.40;70.80;;;16.95;84.81;96129.38;5055660;28;20037;-53
2022/05/21 04:53:14;;;;;;;10.70;7.60;;;20.40;70.80;;;16.90;84.64;96124.09;5056004;28;20032;-58
2022/05/21 04:55:41;;;;;;;13.95;7.88;;;20.40;70.60;;;16.94;84.43;96127.00;5055568;28;20075;-56
2022/05/21 04:58:09;;;;;;;12.63;7.35;;;20.40;70.50;;;16.93;84.29;96141.56;5072485;28;20035;-55
2022/05/21 05:00:41;;;;;;;11.82;7.28;;;20.40;70.40;;;16.85;83.65;96121.47;5073228;28;20153;-55
2022/05/21 05:03:13;;;;;;;11.32;7.60;;;20.40;70.20;;;16.85;83.56;96126.84;5073158;28;20020;-57
2022/05/21 05:05:41;;;;;;;9.90;7.37;;;20.50;70.10;;;16.93;83.55;96133.47;5073085;28;20398;-56
2022/05/21 05:08:10;;;;;;;8.35;7.00;;;20.50;69.80;;;16.98;83.49;96139.56;5055558;28;20020;-56
2022/05/21 05:10:37;;;;;;;11.55;7.10;;;20.50;69.70;;;16.99;82.89;96141.19;5055391;28;20033;-57
2022/05/21 05:13:11;;;;;;;8.60;7.05;;;20.60;69.60;;;17.01;82.94;96143.56;5073504;28;20520;-57
2022/05/21 05:15:37;;;;;;;10.25;6.90;;;20.60;69.50;;;17.00;82.46;96141.97;5072911;28;20028;-54
2022/05/21 05:18:11;;;;;;;9.38;6.57;;;20.60;69.20;;;17.01;82.30;96138.97;5054873;28;20024;-56
2022/05/21 05:20:41;;;;;;;10.43;6.97;;;20.60;69.00;;;17.03;81.77;96144.09;5072940;28;20036;-53
2022/05/21 05:23:19;;;;;;;9.23;6.35;;;20.60;68.80;;;17.06;81.71;96141.59;5055273;28;20086;-55
2022/05/21 05:25:45;;;;;;;11.82;6.43;;;20.70;68.70;;;17.15;81.62;96146.34;5072688;28;20024;-52
2022/05/21 05:28:23;;;;;;;8.75;5.95;;;20.80;68.50;;;17.21;81.62;96143.28;5072479;28;20039;-56
2022/05/21 05:30:49;;;;;;;8.80;5.43;;;20.90;68.40;;;17.16;80.26;96137.16;5054789;28;20031;-53
2022/05/21 05:33:19;;;;;;;10.82;5.57;;;21.00;67.80;;;17.22;80.59;96130.63;5072750;28;20388;-55
2022/05/21 05:35:50;;;;;;;10.95;6.43;;;21.00;67.40;;;17.30;80.17;96138.03;5072764;28;20028;-54
2022/05/21 05:38:16;;;;;;;7.82;5.40;;;21.10;67.10;;;17.43;79.83;96147.25;5051243;28;20041;-52
2022/05/21 05:40:46;;;;;;;11.68;5.10;;;21.30;66.90;;;17.51;78.80;96143.88;5052197;28;20029;-56
2022/05/21 05:43:20;;;;;;;8.13;5.95;;;21.40;66.30;;;17.62;78.40;96142.63;5052457;28;20083;-53
2022/05/21 05:45:49;;;;;;;8.35;5.85;;;21.60;66.10;;;17.62;77.94;96152.59;5052502;28;20025;-58
2022/05/21 05:48:19;;;;;;;9.18;5.65;;;21.60;65.60;;;17.67;78.00;96152.50;5049795;28;20021;-57
2022/05/21 05:50:45;;;;;;;12.98;6.40;;;21.70;65.30;;;17.70;77.52;96155.38;5048851;28;20040;-50
2022/05/21 05:53:17;;;;;;;9.93;6.53;;;21.70;65.10;;;17.72;77.86;96152.41;5051314;28;20029;-56
2022/05/21 05:55:48;;;;;;;7.53;5.90;;;21.80;64.80;;;17.75;76.78;96146.44;5051155;28;20036;-53
2022/05/21 06:00:58;;;;;;;7.05;5.53;;;21.90;64.00;;;17.83;76.21;96151.19;5051241;28;20569;-57
2022/05/21 06:03:24;;;;;;;8.48;5.68;;;21.90;63.70;;;17.91;75.29;96152.38;5050795;28;20017;-52
2022/05/21 06:05:53;;;;;;;8.20;5.38;;;22.00;63.40;;;17.96;75.68;96158.47;5034155;28;20839;-56
2022/05/21 06:08:20;;;;;;;8.30;5.60;;;22.10;63.10;;;18.00;75.31;96166.78;5033878;28;20563;-56
2022/05/21 06:10:48;;;;;;;9.45;6.20;;;22.00;62.70;;;18.00;75.01;96156.78;5052137;28;20056;-55
2022/05/21 06:13:17;;;;;;;10.20;6.00;;;22.10;62.50;;;18.10;74.78;96158.50;5050905;28;20491;-53
2022/05/21 06:15:43;;;;;;;8.85;5.60;;;22.20;62.30;;;18.15;74.76;96153.00;5052119;28;20025;-54
2022/05/21 06:18:17;;;;;;;6.35;4.78;;;22.30;62.00;;;18.25;74.59;96168.97;5050604;28;20061;-52
2022/05/21 06:20:44;;;;;;;7.25;4.93;;;22.40;61.60;;;18.27;72.25;96168.69;5052081;28;20037;-55
2022/05/21 06:23:12;;;;;;;7.30;4.43;;;22.50;61.00;;;18.18;72.51;96171.28;5038989;28;20396;-54
2022/05/21 06:25:38;;;;;;;5.55;4.75;;;22.60;60.30;;;18.22;72.26;96172.28;5052057;28;20445;-57
2022/05/21 06:28:05;;;;;;;4.57;4.10;;;22.70;59.90;;;18.23;72.06;96173.06;5051786;28;20064;-57
2022/05/21 06:30:34;;;;;;;6.03;4.45;;;22.70;59.70;;;18.36;72.08;96168.78;5050925;28;20017;-58
2022/05/21 06:33:25;;;;;;;8.43;4.32;;;22.70;59.60;;;18.24;68.70;96177.38;5051458;28;20491;-57
2022/05/21 06:36:18;;;;;;;5.20;3.70;;;22.70;59.00;;;18.23;69.15;96171.16;5034275;28;20029;-57
2022/05/21 06:38:44;;;;;;;3.80;3.25;;;22.70;58.40;;;18.33;69.54;96172.06;5061135;28;20083;-56
2022/05/21 06:41:13;;;;;;;5.60;3.70;;;22.70;58.20;;;18.46;68.90;96161.31;5053778;28;20028;-56
2022/05/21 06:43:42;;;;;;;6.03;3.75;;;22.80;58.00;;;18.52;68.46;96164.69;5059391;28;20025;-58
2022/05/21 06:46:17;;;;;;;5.75;3.25;;;22.90;57.80;;;18.54;68.28;96165.19;5067253;28;20031;-57
2022/05/21 06:48:43;;;;;;;7.32;3.60;;;23.00;57.50;;;18.57;68.15;96169.19;5053949;28;20024;-57
2022/05/21 06:51:21;;;;;;;6.13;4.00;;;23.00;57.30;;;18.49;68.50;96165.31;5069380;28;20047;-57
2022/05/21 06:53:47;;;;;;;7.93;3.97;;;23.10;57.00;;;18.59;68.48;96169.69;5071720;28;20418;-57
2022/05/21 06:56:15;;;;;;;4.00;3.60;;;23.00;57.00;;;18.58;68.96;96174.25;5072073;28;20036;-56
2022/05/21 06:58:41;;;;;;;6.43;4.40;;;23.00;56.90;;;18.66;69.13;96172.78;5071674;28;20036;-56
2022/05/21 07:01:10;;;;;;;5.10;3.80;;;23.00;56.90;;;18.59;68.45;96173.19;5053854;28;20025;-52
2022/05/21 07:03:36;;;;;;;4.50;3.38;;;23.10;56.80;;;18.64;68.08;96183.06;5053857;28;20427;-57
2022/05/21 07:08:58;;;;;;;4.63;3.42;;;23.00;56.50;;;18.61;67.53;96180.97;5071864;28;20098;-57
2022/05/21 07:11:24;;;;;;;4.88;3.30;;;23.10;56.30;;;18.67;67.40;96177.06;5053702;28;20033;-56
2022/05/21 07:13:49;;;;;;;5.35;3.10;;;23.10;56.10;;;18.64;66.65;96178.44;5071540;28;20035;-52
2022/05/21 07:16:15;;;;;;;5.35;3.22;;;23.10;55.80;;;18.60;67.38;96182.88;5071622;28;20489;-56
2022/05/21 07:18:44;;;;;;;5.47;3.20;;;23.10;55.60;;;18.64;66.49;96180.34;5053334;28;20629;-55
2022/05/21 07:21:17;;;;;;;4.50;3.20;;;23.10;55.40;;;18.77;66.37;96170.69;5039426;28;20020;-57
2022/05/21 07:23:44;;;;;;;4.13;3.05;;;23.20;55.30;;;18.77;65.50;96173.38;5057525;28;20069;-56
2022/05/21 07:26:13;;;;;;;10.60;3.80;;;23.30;55.00;;;18.84;65.88;96176.47;5040537;28;20027;-52
2022/05/21 07:28:39;;;;;;;6.47;3.20;;;23.50;54.70;;;18.98;66.70;96184.53;5075015;28;20090;-57
2022/05/21 07:31:05;;;;;;;4.00;3.22;;;23.60;54.80;;;19.01;66.83;96176.63;5056830;28;20479;-57
2022/05/21 07:33:31;;;;;;;6.22;3.30;;;23.70;54.60;;;18.98;66.03;96179.13;5075162;28;20035;-56
2022/05/21 07:35:57;;;;;;;6.05;3.00;;;23.80;54.20;;;18.90;64.38;96180.66;5070812;28;20029;-56
2022/05/21 07:38:24;;;;;;;5.78;3.00;;;23.90;53.70;;;18.97;64.13;96180.25;5056724;28;20664;-56
2022/05/21 07:40:52;;;;;;;5.60;3.40;;;23.90;53.40;;;19.00;64.05;96174.25;5076285;28;20463;-57
2022/05/21 07:43:21;;;;;;;5.63;3.50;;;24.00;53.10;;;18.99;63.99;96184.25;5078084;28;20025;-56
2022/05/21 07:45:47;;;;;;;6.53;3.10;;;24.10;52.60;;;19.09;63.61;96184.03;5054513;28;20025;-57
2022/05/21 07:48:18;;;;;;;4.40;3.03;;;24.20;52.50;;;19.28;63.58;96180.38;5066161;28;20040;-55
2022/05/21 07:50:49;;;;;;;5.43;3.00;;;24.30;52.40;;;19.31;63.03;96183.25;5060515;28;20449;-57
2022/05/21 07:53:22;;;;;;;4.28;3.15;;;24.30;52.20;;;19.44;62.79;96184.31;5056731;28;20031;-55
2022/05/21 07:55:50;;;;;;;5.00;2.85;;;24.40;52.00;;;19.45;60.87;96174.28;5057330;28;20034;-56
2022/05/21 07:58:20;;;;;;;3.35;2.83;;;24.50;51.40;;;19.55;62.25;96187.53;5072904;28;20024;-56
2022/05/21 08:00:46;;;;;;;3.80;2.50;;;24.60;51.30;;;19.53;60.36;96182.47;5074574;28;20020;-56
2022/05/21 08:03:16;;;;;;;6.03;3.20;;;24.60;50.80;;;19.59;59.75;96178.53;5056474;28;20052;-54
2022/05/21 08:05:45;;;;;;;5.05;2.80;;;24.80;50.30;;;19.79;59.78;96179.16;5074294;28;20024;-57
2022/05/21 08:08:15;;;;;;;5.20;2.58;;;24.90;50.10;;;19.77;58.56;96187.56;5074229;28;20058;-57
2022/05/21 08:10:44;;;;;;;4.53;2.42;;;24.90;49.60;;;19.78;58.99;96181.06;5039672;28;20029;-57
2022/05/21 08:13:19;;;;;;;4.40;2.67;;;24.80;49.30;;;19.85;59.92;96176.03;5056484;28;20033;-54
2022/05/21 08:15:48;;;;;;;5.10;2.88;;;24.80;49.40;;;19.90;58.63;96171.59;5056708;28;20051;-52
2022/05/21 08:18:19;;;;;;;6.20;2.70;;;24.90;49.30;;;19.99;58.42;96175.94;5073842;28;20103;-52
2022/05/21 08:20:45;;;;;;;4.97;2.40;;;25.10;48.90;;;20.06;58.51;96172.81;5074188;28;20033;-52
2022/05/21 08:28:59;;;;;;;4.03;2.50;;;25.70;47.70;;;20.22;57.43;96182.09;5074284;28;20581;-57
2022/05/21 08:31:28;;;;;;;3.55;2.80;;;25.70;47.40;;;20.33;57.18;96183.41;5055749;28;20029;-56
2022/05/21 08:33:54;;;;;;;6.13;2.80;;;25.70;47.30;;;20.45;57.00;96182.81;5050431;28;20119;-57
2022/05/21 08:36:28;;;;;;;3.47;2.83;;;25.80;47.20;;;20.48;56.58;96171.38;5073850;28;20111;-57
2022/05/21 08:38:59;;;;;;;2.90;2.22;;;26.00;46.80;;;20.71;55.89;96160.47;5089381;22;20078;-51
2022/05/21 08:41:32;;;;;;;5.72;3.13;;;26.20;46.40;;;20.95;55.52;96166.25;5091161;28;20036;-54
2022/05/21 08:44:41;;;;;;;6.57;2.50;;;26.50;46.10;;;21.14;55.47;96171.38;5051142;28;20034;-53
2022/05/21 08:47:23;;;;;;;5.40;2.85;;;26.80;45.90;;;21.37;55.26;96158.50;5074703;28;20483;-48
2022/05/21 08:50:12;;;;;;;4.68;2.60;;;26.90;45.60;;;21.44;54.30;96160.75;5060774;28;20110;-50
2022/05/21 08:52:58;;;;;;;3.42;2.53;;;27.20;45.10;;;21.67;53.11;96164.06;5073259;28;20483;-51
2022/05/21 08:55:38;;;;;;;6.10;2.70;;;27.50;44.70;;;21.62;53.65;96159.59;5072302;28;20040;-50
2022/05/21 08:58:29;;;;;;;3.60;2.75;;;27.70;44.00;;;21.83;52.94;96157.00;5055324;28;20032;-49
2022/05/21 09:01:03;;;;;;;4.80;2.80;;;27.80;43.60;;;22.26;51.82;96144.47;5073021;28;20115;-53
2022/05/21 09:03:34;;;;;;;4.00;3.00;;;28.20;43.40;;;22.49;51.01;96150.41;5046431;28;20025;-55
2022/05/21 09:06:39;;;;;;;3.80;2.42;;;28.80;42.50;;;22.89;49.63;96142.66;5071909;28;20033;-50
2022/05/21 09:09:29;;;;;;;6.63;2.90;;;29.10;41.60;;;23.01;48.28;96136.56;5067557;28;20148;-51
2022/05/21 09:12:18;;;;;;;4.60;2.20;;;29.20;41.00;;;22.75;46.78;96129.34;5055020;28;20042;-53
2022/05/21 09:14:53;;;;;;;3.53;2.05;;;29.30;39.50;;;22.92;45.86;96135.78;5055029;28;20039;-51
2022/05/21 09:17:25;;;;;;;3.92;2.42;;;29.40;38.80;;;22.87;45.82;96126.69;5072791;28;20117;-49
2022/05/21 09:19:58;;;;;;;2.88;2.05;;;29.60;38.20;;;22.68;45.72;96133.69;5071426;28;20107;-50
2022/05/21 09:22:24;;;;;;;3.70;2.17;;;29.60;37.50;;;22.68;44.70;96133.69;5054975;28;20040;-49
2022/05/21 09:24:56;;;;;;;4.85;2.03;;;29.60;36.80;;;23.04;43.82;96128.53;5072591;28;20025;-48
2022/05/21 09:27:38;;;;;;;2.08;1.77;;;29.70;36.60;;;23.16;43.90;96140.56;5054752;28;20016;-50
2022/05/21 09:30:24;;;;;;;3.00;1.95;;;29.70;36.40;;;23.21;43.57;96135.75;5071373;28;20048;-50
2022/05/21 09:32:56;;;;;;;3.25;2.20;;;29.70;36.40;;;23.19;44.30;96129.88;5071348;28;20032;-52
2022/05/21 09:35:47;;;;;;;3.58;2.25;;;29.80;36.10;;;23.31;44.14;96135.31;5054647;28;20028;-52
2022/05/21 09:38:40;;;;;;;2.53;1.92;;;29.80;36.00;;;23.27;42.33;96134.41;5071326;28;20107;-53
2022/05/21 09:41:22;;;;;;;3.42;2.00;;;29.90;35.30;;;23.57;42.16;96131.59;5063105;28;20086;-53
2022/05/21 09:46:40;;;;;;;4.40;2.78;;;30.20;35.10;;;23.76;41.34;96128.41;5060451;28;20070;-55
2022/05/21 09:49:31;;;;;;;3.97;1.90;;;30.20;34.70;;;23.82;42.29;96134.41;5072173;28;20044;-52
2022/05/21 09:52:23;;;;;;;2.22;1.88;;;30.20;34.40;;;23.61;42.14;96137.16;5072398;28;20033;-49
2022/05/21 09:54:49;;;;;;;6.20;2.40;;;30.20;34.40;;;23.75;42.48;96134.94;5034364;28;20051;-49
2022/05/21 09:57:43;;;;;;;2.15;1.80;;;30.20;34.50;;;23.89;40.73;96121.84;5067158;28;20029;-51
2022/05/21 10:00:34;;;;;;;2.15;1.88;;;30.30;34.00;;;24.02;40.57;96122.66;5054120;28;20179;-50
2022/05/21 10:03:07;;;;;;;3.25;1.80;;;30.50;33.90;;;23.96;39.46;96118.56;5072226;28;20032;-54
2022/05/21 10:05:53;;;;;;;1.70;1.60;;;30.60;33.10;;;23.94;39.86;96113.50;5071073;28;20082;-51
2022/05/21 10:11:52;;;;;;;2.58;1.38;;;30.70;32.20;;;24.30;40.89;96111.13;5071369;28;20035;-53
2022/05/21 10:14:25;;;;;;;3.03;1.58;;;30.90;32.80;;;24.31;37.60;96110.78;5058762;28;20036;-53
2022/05/21 10:17:05;;;;;;;2.13;1.80;;;31.00;31.70;;;24.44;37.28;96119.78;5070895;28;20504;-52
2022/05/21 10:19:55;;;;;;;1.63;1.30;;;31.10;31.30;;;24.26;35.08;96104.78;5054279;28;20036;-53
2022/05/21 10:23:04;;;;;;;7.32;1.70;;;31.10;30.50;;;24.64;33.83;96102.53;5072189;28;20574;-50
2022/05/21 10:25:48;;;;;;;3.22;1.67;;;31.40;29.90;;;24.91;34.54;96095.56;5072302;28;20231;-48
2022/05/21 10:29:06;;;;;;;2.15;1.85;;;31.60;29.30;;;25.12;34.63;96089.13;5054252;28;20036;-55
2022/05/21 10:32:08;;;;;;;1.95;1.70;;;31.90;28.90;;;25.60;36.20;96093.63;5071172;28;20029;-51
2022/05/21 10:35:12;;;;;;;2.25;1.58;;;32.10;29.40;;;25.75;33.40;96094.00;5070722;28;20410;-49
2022/05/21 10:38:02;;;;;;;2.08;1.80;;;32.30;29.40;;;25.75;33.36;96094.00;5071972;28;20024;-52
2022/05/21 10:41:13;;;;;;;3.55;1.70;;;32.30;28.80;;;25.92;33.61;96090.19;5071852;28;20131;-51
2022/05/21 10:44:16;;;;;;;3.60;1.77;;;32.30;28.60;;;26.21;34.18;96088.94;4995989;28;20028;-50
2022/05/21 10:47:26;;;;;;;3.28;1.48;;;32.60;28.60;;;26.66;33.97;96090.41;5072145;28;20465;-55
2022/05/21 10:50:18;;;;;;;1.95;1.70;;;33.00;28.40;;;26.58;32.97;96084.00;5061078;28;20083;-53
2022/05/21 10:53:31;;;;;;;3.63;2.00;;;33.20;28.10;;;26.66;33.35;96093.13;5054002;28;20052;-53
2022/05/21 10:56:09;;;;;;;2.83;1.60;;;33.30;27.90;;;26.86;33.00;96078.38;5075448;28;20040;-55
2022/05/21 10:59:08;;;;;;;1.75;1.65;;;33.30;27.90;;;26.74;33.04;96076.53;5075801;28;20099;-51
2022/05/21 11:02:33;;;;;;;4.70;1.88;;;33.40;27.60;;;26.87;33.72;96079.94;5075642;28;20414;-55
2022/05/21 11:05:36;;;;;;;2.50;1.95;;;33.50;27.90;;;26.87;31.69;96073.69;5075554;28;20414;-52
2022/05/21 11:08:13;;;;;;;3.40;1.92;;;33.80;27.20;;;27.28;31.77;96068.69;5075652;28;20056;-50
2022/05/21 11:10:51;;;;;;;2.92;2.25;;;34.60;26.70;;;27.60;31.07;96069.31;5075259;28;20028;-50